Time;durP1;ratioP1;P1;durP2;ratioP2;P2;SDS_P1;SDS_P2;PMS_P1;PMS_P2;Temp;Humidity;BMP_temperature;BMP_pressure;BME280_temperature;BME280_humidity;BME280_pressure;Samples;Min_cycle;Max_cycle;Signal;HPM_P1;HPM_P2
2021/12/25 00:02:23;;;;;;;;;14.75;11.00;;;;;;;;5183610;27;22679;-73
2021/12/25 00:04:48;;;;;;;;;11.50;10.00;;;;;;;;5183506;27;11589;-74
2021/12/25 00:07:14;;;;;;;;;11.75;10.00;;;;;;;;5183100;27;10773;-72
2021/12/25 00:09:39;;;;;;;;;11.75;11.25;;;;;;;;5183119;27;8779;-73
2021/12/25 00:12:04;;;;;;;;;5.25;5.25;;;;;;;;5164335;27;10048;-73
2021/12/25 00:14:29;;;;;;;;;16.00;10.00;;;;;;;;5182944;27;22333;-73
2021/12/25 00:16:57;;;;;;;;;9.75;9.00;;;;;;;;5182850;27;22809;-72
2021/12/25 00:19:22;;;;;;;;;9.00;7.75;;;;;;;;5183280;27;22769;-73
2021/12/25 00:21:48;;;;;;;;;10.25;9.00;;;;;;;;5183683;27;11509;-73
2021/12/25 00:24:13;;;;;;;;;10.00;8.00;;;;;;;;5183396;27;22446;-73
2021/12/25 00:27:04;;;;;;;;;10.50;9.50;;;;;;;;5183365;27;10511;-73
2021/12/25 00:34:40;;;;;;;;;10.50;10.50;;;;;;;;5182908;27;22328;-73
2021/12/25 00:37:06;;;;;;;;;10.75;10.75;;;;;;;;5181709;27;23715;-73
2021/12/25 00:39:31;;;;;;;;;9.75;9.75;;;;;;;;5184098;27;11489;-73
2021/12/25 00:41:57;;;;;;;;;11.25;11.25;;;;;;;;5183031;27;22185;-73
2021/12/25 00:44:22;;;;;;;;;13.00;13.00;;;;;;;;5183389;27;22158;-73
2021/12/25 00:46:48;;;;;;;;;11.00;11.00;;;;;;;;5183452;27;11385;-72
2021/12/25 00:49:13;;;;;;;;;12.00;11.75;;;;;;;;5183802;27;9810;-73
2021/12/25 00:51:38;;;;;;;;;12.00;10.50;;;;;;;;5183383;27;11437;-73
2021/12/25 00:54:04;;;;;;;;;9.25;8.25;;;;;;;;5183857;27;8838;-73
2021/12/25 00:56:29;;;;;;;;;11.25;11.00;;;;;;;;5183548;27;22178;-73
2021/12/25 00:58:54;;;;;;;;;12.00;11.00;;;;;;;;5182525;27;22478;-73
2021/12/25 01:01:19;;;;;;;;;17.00;13.50;;;;;;;;5182641;27;9961;-73
2021/12/25 01:03:46;;;;;;;;;12.50;12.00;;;;;;;;5182509;27;11560;-73
2021/12/25 01:06:11;;;;;;;;;15.50;12.75;;;;;;;;5183558;27;11488;-73
2021/12/25 01:08:36;;;;;;;;;11.25;11.25;;;;;;;;5183207;27;12551;-73
2021/12/25 01:11:02;;;;;;;;;12.25;11.00;;;;;;;;5183640;27;11515;-73
2021/12/25 01:13:32;;;;;;;;;13.00;12.00;;;;;;;;5183066;27;11400;-73
2021/12/25 06:10:27;;;;;;;;;19.50;17.25;;;;;;;;5217104;27;78951;-76
2021/12/25 06:12:55;;;;;;;;;19.75;14.25;;;;;;;;5199594;27;22223;-75
2021/12/25 06:15:21;;;;;;;;;15.50;14.75;;;;;;;;5199668;27;9884;-76
2021/12/25 06:17:46;;;;;;;;;16.00;16.00;;;;;;;;5191946;27;11581;-74
2021/12/25 06:20:12;;;;;;;;;13.25;11.25;;;;;;;;5190418;27;12755;-75
2021/12/25 06:22:38;;;;;;;;;16.75;15.00;;;;;;;;5198701;27;11832;-76
2021/12/25 06:25:03;;;;;;;;;19.00;14.00;;;;;;;;5196524;27;11444;-75
2021/12/25 06:27:29;;;;;;;;;15.00;14.00;;;;;;;;5191694;27;10884;-75
2021/12/25 06:29:54;;;;;;;;;13.75;13.75;;;;;;;;5194320;27;8895;-74
2021/12/25 06:32:19;;;;;;;;;13.75;12.00;;;;;;;;5192840;27;11984;-73
2021/12/25 06:34:45;;;;;;;;;13.00;10.00;;;;;;;;5188653;27;8845;-75
2021/12/25 06:37:10;;;;;;;;;7.75;7.75;;;;;;;;5188797;27;9722;-75
2021/12/25 06:39:36;;;;;;;;;9.25;8.75;;;;;;;;5185349;27;23360;-75
2021/12/25 06:42:01;;;;;;;;;14.00;12.25;;;;;;;;5178768;27;9427;-74
2021/12/25 06:44:27;;;;;;;;;15.50;15.25;;;;;;;;5183227;27;22234;-74
2021/12/25 06:46:53;;;;;;;;;11.75;11.25;;;;;;;;5186020;27;10671;-75
2021/12/25 06:49:19;;;;;;;;;14.50;13.50;;;;;;;;5183660;27;10387;-75
2021/12/25 06:51:44;;;;;;;;;12.50;12.50;;;;;;;;5188494;27;11720;-75
2021/12/25 06:54:10;;;;;;;;;15.25;14.00;;;;;;;;5178129;27;11496;-73
2021/12/25 06:56:35;;;;;;;;;15.50;11.25;;;;;;;;5177720;27;11359;-73
2021/12/25 06:59:00;;;;;;;;;12.00;10.00;;;;;;;;5177544;27;10329;-73
2021/12/25 07:01:25;;;;;;;;;14.00;12.00;;;;;;;;5177724;27;11584;-74
2021/12/25 07:03:51;;;;;;;;;13.00;11.50;;;;;;;;5177615;27;8893;-75
2021/12/25 07:06:16;;;;;;;;;10.75;10.75;;;;;;;;5186080;27;11345;-71
2021/12/25 07:08:41;;;;;;;;;12.50;11.50;;;;;;;;5197776;27;12588;-79
2021/12/25 07:11:07;;;;;;;;;13.50;12.00;;;;;;;;5198483;27;12172;-78
2021/12/25 07:13:32;;;;;;;;;15.50;13.00;;;;;;;;5198392;27;11614;-80
2021/12/25 07:15:57;;;;;;;;;12.75;10.25;;;;;;;;5198461;27;8898;-73
2021/12/25 07:18:23;;;;;;;;;13.00;12.00;;;;;;;;5197919;27;11497;-73
2021/12/25 07:20:50;;;;;;;;;14.00;12.00;;;;;;;;5189434;27;11700;-72
2021/12/25 07:23:16;;;;;;;;;12.50;11.25;;;;;;;;5184159;27;8784;-74
2021/12/25 07:25:41;;;;;;;;;12.25;11.50;;;;;;;;5184326;27;11488;-73
2021/12/25 07:28:07;;;;;;;;;15.00;14.50;;;;;;;;5184076;27;8868;-73
2021/12/25 07:30:32;;;;;;;;;12.75;11.75;;;;;;;;5183974;27;10330;-75
2021/12/25 07:32:58;;;;;;;;;14.50;14.25;;;;;;;;5180341;27;11528;-73
2021/12/25 07:35:23;;;;;;;;;14.75;12.75;;;;;;;;5184305;27;10339;-73
2021/12/25 07:37:49;;;;;;;;;12.00;11.00;;;;;;;;5183720;27;9878;-73
2021/12/25 07:40:14;;;;;;;;;15.50;13.00;;;;;;;;5183996;27;11563;-73
2021/12/25 07:42:39;;;;;;;;;18.00;12.00;;;;;;;;5183877;27;10583;-74
2021/12/25 07:45:06;;;;;;;;;17.75;12.50;;;;;;;;5164704;27;10809;-73
2021/12/25 07:47:34;;;;;;;;;14.00;12.25;;;;;;;;5182782;27;11604;-72
2021/12/25 07:50:00;;;;;;;;;13.50;11.25;;;;;;;;5183084;27;11610;-71
2021/12/25 07:52:26;;;;;;;;;17.00;15.00;;;;;;;;5183459;27;11476;-71
2021/12/25 07:54:51;;;;;;;;;15.75;12.00;;;;;;;;5183087;27;11496;-72
2021/12/25 07:57:16;;;;;;;;;15.75;15.75;;;;;;;;5183406;27;12255;-72
2021/12/25 07:59:42;;;;;;;;;11.75;11.75;;;;;;;;5182967;27;8819;-71
2021/12/25 08:02:07;;;;;;;;;17.25;14.00;;;;;;;;5182643;27;8899;-71
2021/12/25 08:04:33;;;;;;;;;16.50;15.25;;;;;;;;5182721;27;11455;-72
2021/12/25 08:06:58;;;;;;;;;19.50;18.75;;;;;;;;5183303;27;11496;-75
2021/12/25 08:09:30;;;;;;;;;29.75;26.00;;;;;;;;5182928;27;10325;-73
2021/12/25 08:11:56;;;;;;;;;15.25;12.75;;;;;;;;5182551;27;15837;-76
2021/12/25 08:14:25;;;;;;;;;13.50;13.25;;;;;;;;5182717;27;14467;-72
2021/12/25 08:16:50;;;;;;;;;14.25;14.25;;;;;;;;5182872;27;11577;-73
2021/12/25 08:19:16;;;;;;;;;19.25;12.50;;;;;;;;5176422;27;11515;-72
2021/12/25 08:21:41;;;;;;;;;17.50;13.00;;;;;;;;5161685;27;11850;-70
2021/12/25 08:24:06;;;;;;;;;16.25;13.75;;;;;;;;5161895;27;11392;-72
2021/12/25 08:26:32;;;;;;;;;10.00;9.75;;;;;;;;5167505;27;11889;-71
2021/12/25 08:28:57;;;;;;;;;17.25;15.25;;;;;;;;5166825;27;21775;-71
2021/12/25 08:31:22;;;;;;;;;14.00;14.00;;;;;;;;5160135;27;21530;-79
2021/12/25 08:33:47;;;;;;;;;20.25;16.75;;;;;;;;5160942;27;11359;-81
2021/12/25 08:36:13;;;;;;;;;15.50;12.75;;;;;;;;5161688;27;13440;-76
2021/12/25 08:38:38;;;;;;;;;11.50;9.75;;;;;;;;5162521;27;12242;-79
2021/12/25 08:41:03;;;;;;;;;18.00;15.50;;;;;;;;5161889;27;21452;-79
2021/12/25 08:43:34;;;;;;;;;20.50;17.00;;;;;;;;5162094;27;21491;-75
2021/12/25 08:46:11;;;;;;;;;20.00;13.75;;;;;;;;5162584;27;14436;-76
2021/12/25 08:48:36;;;;;;;;;20.75;14.50;;;;;;;;5161672;27;11510;-79
2021/12/25 08:51:01;;;;;;;;;18.00;14.25;;;;;;;;5161434;27;11480;-71
2021/12/25 08:53:28;;;;;;;;;16.00;16.00;;;;;;;;5166187;27;13862;-71
2021/12/25 08:55:55;;;;;;;;;16.00;13.00;;;;;;;;5158823;27;13203;-71
2021/12/25 08:58:21;;;;;;;;;18.75;17.75;;;;;;;;5161640;27;11495;-71
2021/12/25 09:00:50;;;;;;;;;22.50;19.00;;;;;;;;5180772;27;12075;-79
2021/12/25 09:03:15;;;;;;;;;17.75;15.00;;;;;;;;5160956;27;15395;-72
2021/12/25 09:05:41;;;;;;;;;16.50;13.50;;;;;;;;5177817;27;12762;-73
2021/12/25 09:08:06;;;;;;;;;19.75;18.50;;;;;;;;5178926;27;11393;-79
2021/12/25 09:10:32;;;;;;;;;24.00;20.50;;;;;;;;5182401;27;11553;-79
2021/12/25 09:12:58;;;;;;;;;16.25;15.00;;;;;;;;5182363;27;13635;-78
2021/12/25 09:15:23;;;;;;;;;16.25;16.25;;;;;;;;5180835;27;14545;-76
2021/12/25 09:17:49;;;;;;;;;15.00;15.00;;;;;;;;5163842;27;11520;-74
2021/12/25 09:20:17;;;;;;;;;17.00;16.25;;;;;;;;5181922;27;11542;-76
2021/12/25 09:22:43;;;;;;;;;13.25;13.00;;;;;;;;5182029;27;11624;-78
2021/12/25 09:25:09;;;;;;;;;17.75;17.00;;;;;;;;5162651;27;13990;-76
2021/12/25 09:27:34;;;;;;;;;17.50;16.50;;;;;;;;5170557;27;11512;-76
2021/12/25 09:30:00;;;;;;;;;18.00;17.50;;;;;;;;5175500;27;11012;-81
2021/12/25 09:32:26;;;;;;;;;21.25;17.00;;;;;;;;5173015;27;10667;-80
2021/12/25 09:34:51;;;;;;;;;18.75;18.75;;;;;;;;5169577;27;13214;-79
2021/12/25 09:37:18;;;;;;;;;18.50;16.75;;;;;;;;5170274;27;13892;-77
2021/12/25 09:39:44;;;;;;;;;20.50;19.50;;;;;;;;5170133;27;10140;-77
2021/12/25 09:42:10;;;;;;;;;22.00;21.75;;;;;;;;5167098;27;13289;-76
2021/12/25 09:44:35;;;;;;;;;21.50;18.25;;;;;;;;5169011;27;12303;-78
2021/12/25 09:47:01;;;;;;;;;21.50;17.25;;;;;;;;5168546;27;12393;-78
2021/12/25 09:49:26;;;;;;;;;17.50;15.75;;;;;;;;5172884;27;8899;-82
2021/12/25 09:51:51;;;;;;;;;21.50;18.75;;;;;;;;5149758;27;13135;-81
2021/12/25 09:54:18;;;;;;;;;20.00;17.00;;;;;;;;5151241;27;11043;-81
2021/12/25 09:56:45;;;;;;;;;18.00;16.25;;;;;;;;5152547;27;11998;-79
2021/12/25 09:59:11;;;;;;;;;16.50;13.25;;;;;;;;5168903;27;13531;-77
2021/12/25 10:01:36;;;;;;;;;9.00;9.00;;;;;;;;5169885;27;11610;-77
2021/12/25 10:04:02;;;;;;;;;10.25;10.00;;;;;;;;5170250;27;23415;-77
2021/12/25 10:06:29;;;;;;;;;9.00;9.00;;;;;;;;5171358;27;22375;-77
2021/12/25 10:08:54;;;;;;;;;12.50;9.00;;;;;;;;5162291;27;22980;-73
2021/12/25 10:11:19;;;;;;;;;10.00;9.25;;;;;;;;5175036;27;16260;-75
2021/12/25 10:13:46;;;;;;;;;10.50;10.50;;;;;;;;5168926;27;12481;-74
2021/12/25 10:16:20;;;;;;;;;10.00;10.00;;;;;;;;5158432;27;21903;-75
2021/12/25 10:18:46;;;;;;;;;10.75;9.25;;;;;;;;5140758;27;12430;-79
2021/12/25 10:21:20;;;;;;;;;14.50;10.00;;;;;;;;5158704;27;22601;-75
2021/12/25 10:26:22;;;;;;;;;11.00;10.75;;;;;;;;5099158;28;11683;-90
2021/12/25 10:28:50;;;;;;;;;9.75;9.25;;;;;;;;5080970;28;11803;-79
2021/12/25 10:31:16;;;;;;;;;14.00;12.00;;;;;;;;5080465;28;22716;-78
2021/12/25 10:33:52;;;;;;;;;17.25;15.00;;;;;;;;5097929;28;23515;-81
2021/12/25 10:36:25;;;;;;;;;8.50;8.50;;;;;;;;5081456;28;11038;-78
2021/12/25 10:39:05;;;;;;;;;18.00;16.00;;;;;;;;5078325;28;22352;-73
2021/12/25 10:41:34;;;;;;;;;23.75;22.50;;;;;;;;5077158;28;22690;-77
2021/12/25 10:44:18;;;;;;;;;21.75;16.75;;;;;;;;5078400;28;13374;-77
2021/12/25 10:46:48;;;;;;;;;23.00;17.50;;;;;;;;5079233;28;12292;-75
2021/12/25 10:49:14;;;;;;;;;17.25;15.25;;;;;;;;5078907;28;11571;-76
2021/12/25 10:51:40;;;;;;;;;16.00;12.50;;;;;;;;5060122;28;15513;-76
2021/12/25 10:54:06;;;;;;;;;17.00;16.25;;;;;;;;5081110;28;11598;-80
2021/12/25 10:56:36;;;;;;;;;16.00;14.50;;;;;;;;5099428;28;12589;-77
2021/12/25 10:59:07;;;;;;;;;16.00;14.25;;;;;;;;5102055;28;11611;-75
2021/12/25 11:01:37;;;;;;;;;20.25;16.50;;;;;;;;5102902;28;11568;-79
2021/12/25 11:04:03;;;;;;;;;13.00;13.00;;;;;;;;5099545;28;13546;-80
2021/12/25 11:06:28;;;;;;;;;16.00;15.25;;;;;;;;5103008;28;13725;-83
2021/12/25 11:08:57;;;;;;;;;16.75;16.25;;;;;;;;5102533;28;12676;-80
2021/12/25 11:11:23;;;;;;;;;12.00;11.75;;;;;;;;5103419;28;9612;-80
2021/12/25 11:13:50;;;;;;;;;10.50;10.00;;;;;;;;5102332;28;11569;-77
2021/12/25 11:16:27;;;;;;;;;13.75;12.00;;;;;;;;5102262;28;11505;-76
2021/12/25 11:19:01;;;;;;;;;12.75;10.75;;;;;;;;5102621;28;11476;-81
2021/12/25 11:21:26;;;;;;;;;11.00;11.00;;;;;;;;5102554;28;11691;-85
2021/12/25 11:24:02;;;;;;;;;10.50;10.25;;;;;;;;5102610;28;12271;-77
2021/12/25 11:26:28;;;;;;;;;12.75;11.00;;;;;;;;5085125;28;11641;-82
2021/12/25 11:28:53;;;;;;;;;6.75;6.75;;;;;;;;5103621;28;11508;-82
2021/12/25 11:31:18;;;;;;;;;11.25;11.00;;;;;;;;5101189;28;22214;-81
2021/12/25 11:33:44;;;;;;;;;11.25;10.50;;;;;;;;5101870;28;24047;-81
2021/12/25 11:36:10;;;;;;;;;17.00;15.25;;;;;;;;5103206;28;8974;-80
2021/12/25 11:38:35;;;;;;;;;15.00;12.00;;;;;;;;5082340;28;15194;-80
2021/12/25 11:41:05;;;;;;;;;17.25;14.00;;;;;;;;5102041;28;11348;-81
2021/12/25 11:43:37;;;;;;;;;21.50;17.00;;;;;;;;5083640;28;13138;-82
2021/12/25 11:46:06;;;;;;;;;17.00;16.00;;;;;;;;5102506;28;12626;-80
2021/12/25 11:48:31;;;;;;;;;16.25;16.25;;;;;;;;5102612;28;12751;-81
2021/12/25 11:50:57;;;;;;;;;16.00;13.25;;;;;;;;5102684;28;13308;-81
2021/12/25 11:53:30;;;;;;;;;15.75;14.00;;;;;;;;5102857;28;10719;-80
2021/12/25 11:58:40;;;;;;;;;22.75;18.00;;;;;;;;5102630;28;11474;-80
2021/12/25 12:01:26;;;;;;;;;20.75;16.25;;;;;;;;5101805;28;13543;-80
2021/12/25 12:03:56;;;;;;;;;20.25;19.00;;;;;;;;5102541;28;12883;-79
2021/12/25 12:06:39;;;;;;;;;27.00;24.75;;;;;;;;5101946;28;11642;-79
2021/12/25 12:09:09;;;;;;;;;22.75;19.75;;;;;;;;5102313;28;12415;-79
2021/12/25 12:11:34;;;;;;;;;23.25;22.00;;;;;;;;5101621;28;13063;-79
2021/12/25 12:14:26;;;;;;;;;22.25;21.00;;;;;;;;5101431;28;12380;-80
2021/12/25 12:16:53;;;;;;;;;20.00;18.50;;;;;;;;5081106;28;10441;-79
2021/12/25 12:19:38;;;;;;;;;24.25;19.00;;;;;;;;5101977;28;12337;-80
2021/12/25 12:22:19;;;;;;;;;17.50;17.00;;;;;;;;5101652;28;11642;-80
2021/12/25 12:25:01;;;;;;;;;19.75;19.75;;;;;;;;5101162;28;12666;-79
2021/12/25 12:27:49;;;;;;;;;16.75;16.00;;;;;;;;5100381;28;13282;-78
2021/12/25 12:30:34;;;;;;;;;28.25;21.25;;;;;;;;5092589;28;11502;-79
2021/12/25 12:33:19;;;;;;;;;20.00;17.00;;;;;;;;5082696;28;16044;-80
2021/12/25 12:35:46;;;;;;;;;17.25;16.50;;;;;;;;5090192;28;12342;-80
2021/12/25 12:38:29;;;;;;;;;11.50;11.50;;;;;;;;5101997;28;13618;-81
2021/12/25 12:41:09;;;;;;;;;22.00;17.75;;;;;;;;5101223;28;11457;-80
2021/12/25 12:43:54;;;;;;;;;26.00;19.50;;;;;;;;5101374;28;13458;-80
2021/12/25 12:46:20;;;;;;;;;23.50;21.50;;;;;;;;5101444;28;11675;-80
2021/12/25 12:49:05;;;;;;;;;17.50;15.00;;;;;;;;5102059;28;11641;-80
2021/12/25 12:51:31;;;;;;;;;16.00;15.00;;;;;;;;5101839;28;13586;-80
2021/12/25 12:53:56;;;;;;;;;17.75;15.50;;;;;;;;5101883;28;11558;-80
2021/12/25 12:56:22;;;;;;;;;16.00;14.00;;;;;;;;5101551;28;12288;-80
2021/12/25 12:58:52;;;;;;;;;18.00;16.50;;;;;;;;5101804;28;11643;-81
2021/12/25 13:01:17;;;;;;;;;20.00;15.00;;;;;;;;5102346;28;11456;-80
2021/12/25 13:03:42;;;;;;;;;13.00;12.25;;;;;;;;5101874;28;13645;-80
2021/12/25 13:06:14;;;;;;;;;12.00;12.00;;;;;;;;5102129;28;13368;-80
2021/12/25 13:08:41;;;;;;;;;19.25;13.00;;;;;;;;5101203;28;11712;-80
2021/12/25 13:11:17;;;;;;;;;12.75;10.00;;;;;;;;5101819;28;11458;-80
2021/12/25 13:13:56;;;;;;;;;12.00;10.50;;;;;;;;5101977;28;11441;-80
2021/12/25 13:16:24;;;;;;;;;15.00;11.75;;;;;;;;5102532;28;12168;-79
2021/12/25 13:18:52;;;;;;;;;12.00;12.00;;;;;;;;5100266;28;11440;-80
2021/12/25 13:21:21;;;;;;;;;12.00;11.50;;;;;;;;5083636;28;12045;-80
2021/12/25 13:23:53;;;;;;;;;10.75;10.75;;;;;;;;5101868;28;11467;-81
2021/12/25 13:26:20;;;;;;;;;13.75;12.00;;;;;;;;5101129;28;11717;-80
2021/12/25 13:28:47;;;;;;;;;18.25;13.25;;;;;;;;5100599;28;11787;-81
2021/12/25 13:31:14;;;;;;;;;16.00;13.50;;;;;;;;5100899;28;12451;-81
2021/12/25 13:33:59;;;;;;;;;18.00;14.75;;;;;;;;5101826;28;11474;-80
2021/12/25 13:36:29;;;;;;;;;22.00;16.75;;;;;;;;5100780;28;11493;-79
2021/12/25 13:39:03;;;;;;;;;20.00;16.00;;;;;;;;5100794;28;11514;-80
2021/12/25 13:41:34;;;;;;;;;19.75;17.00;;;;;;;;5101210;28;11908;-79
2021/12/25 13:44:09;;;;;;;;;25.25;21.25;;;;;;;;5100592;28;13377;-80
2021/12/25 13:46:37;;;;;;;;;20.50;19.00;;;;;;;;5101074;28;13649;-80
2021/12/25 13:49:02;;;;;;;;;22.75;20.25;;;;;;;;5100458;28;12685;-80
2021/12/25 13:51:28;;;;;;;;;20.75;18.25;;;;;;;;5103351;28;12223;-79
2021/12/25 13:53:53;;;;;;;;;18.25;15.50;;;;;;;;5108016;28;9766;-80
2021/12/25 13:56:18;;;;;;;;;17.00;17.00;;;;;;;;5107119;28;13584;-79
2021/12/25 13:58:43;;;;;;;;;18.00;17.25;;;;;;;;5118444;28;11553;-79
2021/12/25 14:01:13;;;;;;;;;20.50;18.50;;;;;;;;5108784;28;11370;-80
2021/12/25 14:03:38;;;;;;;;;16.50;14.00;;;;;;;;5104769;28;13358;-79
2021/12/25 14:06:05;;;;;;;;;20.75;18.50;;;;;;;;5100418;28;13692;-80
2021/12/25 14:08:30;;;;;;;;;15.75;12.25;;;;;;;;5100546;28;14763;-81
2021/12/25 14:10:59;;;;;;;;;22.00;19.25;;;;;;;;5100828;28;13754;-80
2021/12/25 14:13:25;;;;;;;;;21.25;19.75;;;;;;;;5099922;28;13690;-80
2021/12/25 14:15:53;;;;;;;;;23.75;21.50;;;;;;;;5099910;28;11467;-81
2021/12/25 14:18:20;;;;;;;;;24.25;21.50;;;;;;;;5100638;28;12291;-81
2021/12/25 14:20:46;;;;;;;;;22.00;18.50;;;;;;;;5081473;28;11493;-80
2021/12/25 14:23:12;;;;;;;;;28.00;23.00;;;;;;;;5099546;28;11467;-81
2021/12/25 14:25:39;;;;;;;;;26.50;25.50;;;;;;;;5099917;28;12436;-80
2021/12/25 14:28:13;;;;;;;;;31.25;24.75;;;;;;;;5099780;28;11509;-79
2021/12/25 14:30:41;;;;;;;;;25.00;23.75;;;;;;;;5082572;28;13682;-81
2021/12/25 14:33:11;;;;;;;;;27.75;24.00;;;;;;;;5084361;28;12619;-80
2021/12/25 14:35:37;;;;;;;;;32.25;29.00;;;;;;;;5103052;28;11554;-80
2021/12/25 14:38:03;;;;;;;;;32.50;27.75;;;;;;;;5103663;28;11776;-80
2021/12/25 14:40:33;;;;;;;;;27.75;22.75;;;;;;;;5103568;28;11590;-80
2021/12/25 14:43:01;;;;;;;;;29.25;26.75;;;;;;;;5103676;28;12608;-79
2021/12/25 14:45:29;;;;;;;;;26.75;26.00;;;;;;;;5103179;28;11490;-79
2021/12/25 14:47:57;;;;;;;;;33.00;30.50;;;;;;;;5103192;28;11492;-80
2021/12/25 14:50:27;;;;;;;;;32.75;28.00;;;;;;;;5103386;28;13387;-79
2021/12/25 14:53:07;;;;;;;;;33.50;33.50;;;;;;;;5102932;28;12361;-79
2021/12/25 14:55:34;;;;;;;;;35.25;35.25;;;;;;;;5102891;28;12275;-80
2021/12/25 14:58:06;;;;;;;;;28.75;27.50;;;;;;;;5102835;28;11465;-79
2021/12/25 15:00:32;;;;;;;;;30.75;26.75;;;;;;;;5103022;28;13704;-80
2021/12/25 15:03:07;;;;;;;;;29.00;26.00;;;;;;;;5103229;28;13250;-79
2021/12/25 15:05:36;;;;;;;;;27.25;24.25;;;;;;;;5103400;28;14486;-79
2021/12/25 15:08:15;;;;;;;;;27.00;26.00;;;;;;;;5085222;28;13779;-80
2021/12/25 15:10:40;;;;;;;;;28.50;26.00;;;;;;;;5102713;28;12619;-80
2021/12/25 15:13:15;;;;;;;;;29.50;26.00;;;;;;;;5103174;28;11675;-80
2021/12/25 15:15:54;;;;;;;;;23.50;22.50;;;;;;;;5102921;28;8806;-78
2021/12/25 15:18:21;;;;;;;;;26.00;23.75;;;;;;;;5103020;28;11507;-79
2021/12/25 15:20:46;;;;;;;;;31.25;27.50;;;;;;;;5103016;28;11624;-79
2021/12/25 15:23:16;;;;;;;;;28.75;27.00;;;;;;;;5102842;28;14288;-79
2021/12/25 15:25:41;;;;;;;;;27.75;27.25;;;;;;;;5103076;28;14503;-80
2021/12/25 15:28:07;;;;;;;;;31.25;27.00;;;;;;;;5102588;28;11458;-80
2021/12/25 15:30:33;;;;;;;;;24.50;23.75;;;;;;;;5102874;28;13680;-84
2021/12/25 15:33:09;;;;;;;;;27.50;22.00;;;;;;;;5102086;28;13271;-78
2021/12/25 15:35:36;;;;;;;;;32.50;30.25;;;;;;;;5102332;28;11651;-77
2021/12/25 15:38:02;;;;;;;;;26.00;24.50;;;;;;;;5098020;28;13310;-75
2021/12/25 15:40:28;;;;;;;;;34.75;28.00;;;;;;;;5101240;28;13286;-76
2021/12/25 15:42:53;;;;;;;;;30.50;28.00;;;;;;;;5101159;28;13354;-77
2021/12/25 15:45:19;;;;;;;;;27.25;25.50;;;;;;;;5098171;28;11602;-76
2021/12/25 15:47:45;;;;;;;;;27.50;27.00;;;;;;;;5089870;28;13433;-75
2021/12/25 15:50:12;;;;;;;;;29.25;25.00;;;;;;;;5090809;28;10420;-74
2021/12/25 15:52:38;;;;;;;;;28.25;24.00;;;;;;;;5094428;28;11503;-75
2021/12/25 15:55:05;;;;;;;;;24.50;22.50;;;;;;;;5101826;28;11585;-77
2021/12/25 15:57:35;;;;;;;;;23.00;19.00;;;;;;;;5083167;28;11814;-82
2021/12/25 16:00:01;;;;;;;;;23.75;19.25;;;;;;;;5102617;28;12596;-78
2021/12/25 16:02:27;;;;;;;;;24.50;19.00;;;;;;;;5102324;28;11454;-80
2021/12/25 16:04:53;;;;;;;;;23.00;22.50;;;;;;;;5102062;28;11801;-82
2021/12/25 16:07:19;;;;;;;;;22.00;21.75;;;;;;;;5102145;28;13421;-78
2021/12/25 16:09:44;;;;;;;;;25.50;23.25;;;;;;;;5086229;28;11460;-82
2021/12/25 16:12:09;;;;;;;;;22.00;19.25;;;;;;;;5075929;28;12621;-82
2021/12/25 16:14:35;;;;;;;;;20.00;18.00;;;;;;;;5093605;28;11881;-84
2021/12/25 16:17:04;;;;;;;;;21.75;19.50;;;;;;;;5092296;28;11401;-82
2021/12/25 16:19:31;;;;;;;;;21.25;18.50;;;;;;;;5088294;28;11645;-78
2021/12/25 16:21:56;;;;;;;;;23.00;18.75;;;;;;;;5081163;28;11493;-78
2021/12/25 16:24:22;;;;;;;;;21.75;18.75;;;;;;;;5086247;28;11514;-83
2021/12/25 16:26:47;;;;;;;;;20.00;18.00;;;;;;;;5062707;28;10874;-80
2021/12/25 16:29:13;;;;;;;;;20.50;17.50;;;;;;;;5082833;28;11714;-80
2021/12/25 16:31:38;;;;;;;;;23.75;19.50;;;;;;;;5089183;28;10336;-79
2021/12/25 16:34:05;;;;;;;;;23.50;21.00;;;;;;;;5091037;28;10345;-79
2021/12/25 16:36:31;;;;;;;;;22.25;18.50;;;;;;;;5090219;28;12307;-77
2021/12/25 16:38:57;;;;;;;;;22.25;19.00;;;;;;;;5089330;28;12209;-77
2021/12/25 16:41:22;;;;;;;;;20.75;17.00;;;;;;;;5072829;28;8870;-77
2021/12/25 16:43:47;;;;;;;;;16.75;16.75;;;;;;;;5089598;28;9540;-78
2021/12/25 16:46:13;;;;;;;;;16.25;11.75;;;;;;;;5090061;28;13283;-78
2021/12/25 16:48:40;;;;;;;;;9.25;8.50;;;;;;;;5088177;28;9633;-79
2021/12/25 16:51:06;;;;;;;;;9.75;9.25;;;;;;;;5091171;28;22449;-78
2021/12/25 16:53:32;;;;;;;;;18.75;13.50;;;;;;;;5089631;28;11514;-77
2021/12/25 16:55:57;;;;;;;;;13.00;13.00;;;;;;;;5100125;28;22945;-78
2021/12/25 16:58:23;;;;;;;;;19.75;15.00;;;;;;;;5100721;28;12429;-79
2021/12/25 17:00:48;;;;;;;;;16.00;13.75;;;;;;;;5082256;28;12563;-80
2021/12/25 17:03:14;;;;;;;;;14.50;13.00;;;;;;;;5100617;28;11860;-80
2021/12/25 17:05:41;;;;;;;;;13.00;12.00;;;;;;;;5088672;28;12139;-82
2021/12/25 17:08:07;;;;;;;;;13.00;13.00;;;;;;;;5062799;28;12455;-85
2021/12/25 17:10:32;;;;;;;;;16.00;12.50;;;;;;;;5062575;28;11458;-85
2021/12/25 17:12:58;;;;;;;;;0.00;0.00;;;;;;;;5080296;28;11365;-83
2021/12/25 17:15:24;;;;;;;;;17.50;14.00;;;;;;;;5080644;28;22158;-86
2021/12/25 17:17:50;;;;;;;;;13.00;12.50;;;;;;;;5083979;28;22610;-84
2021/12/25 17:20:16;;;;;;;;;13.00;12.00;;;;;;;;5090053;28;12727;-84
2021/12/25 17:22:42;;;;;;;;;13.00;12.75;;;;;;;;5087763;28;8946;-85
2021/12/25 17:25:08;;;;;;;;;13.00;13.00;;;;;;;;5087134;28;11631;-83
2021/12/25 17:27:34;;;;;;;;;20.25;16.75;;;;;;;;5090325;28;9112;-86
2021/12/25 17:29:59;;;;;;;;;13.50;11.25;;;;;;;;5082219;28;13495;-77
2021/12/25 17:32:25;;;;;;;;;17.25;15.50;;;;;;;;5079866;28;12213;-81
2021/12/25 17:34:50;;;;;;;;;13.50;12.25;;;;;;;;5080125;28;11366;-85
2021/12/25 17:37:16;;;;;;;;;10.75;10.75;;;;;;;;5080448;28;12871;-80
2021/12/25 17:39:41;;;;;;;;;17.50;16.00;;;;;;;;5079823;28;10553;-78
2021/12/25 17:42:09;;;;;;;;;16.75;13.75;;;;;;;;5061390;28;13394;-77
2021/12/25 17:44:35;;;;;;;;;19.25;17.00;;;;;;;;5079922;28;12125;-78
2021/12/25 17:47:00;;;;;;;;;16.50;16.50;;;;;;;;5079950;28;11510;-78
2021/12/25 17:49:26;;;;;;;;;17.25;15.25;;;;;;;;5079145;28;11563;-77
2021/12/25 17:51:52;;;;;;;;;20.00;17.25;;;;;;;;5079465;28;12782;-78
2021/12/25 17:54:17;;;;;;;;;19.50;17.50;;;;;;;;5079256;28;12372;-77
2021/12/25 17:56:43;;;;;;;;;19.00;17.75;;;;;;;;5079268;28;13483;-78
2021/12/25 17:59:08;;;;;;;;;18.00;14.50;;;;;;;;5079400;28;9497;-77
2021/12/25 18:01:34;;;;;;;;;20.75;17.25;;;;;;;;5079330;28;11523;-77
2021/12/25 18:04:00;;;;;;;;;16.25;15.50;;;;;;;;5094661;28;13220;-78
2021/12/25 18:06:25;;;;;;;;;21.75;17.00;;;;;;;;5100749;28;13372;-84
2021/12/25 18:08:54;;;;;;;;;19.00;17.75;;;;;;;;5100688;28;13203;-77
2021/12/25 18:11:20;;;;;;;;;22.00;20.25;;;;;;;;5099290;28;13536;-77
2021/12/25 18:13:45;;;;;;;;;20.25;18.50;;;;;;;;5099645;28;12179;-76
2021/12/25 18:16:10;;;;;;;;;12.50;12.50;;;;;;;;5099851;28;12188;-81
2021/12/25 18:18:36;;;;;;;;;20.00;14.25;;;;;;;;5099765;28;12911;-76
2021/12/25 18:21:03;;;;;;;;;21.50;17.00;;;;;;;;5099127;28;13292;-77
2021/12/25 18:23:29;;;;;;;;;19.25;16.25;;;;;;;;5100654;28;11441;-79
2021/12/25 18:25:54;;;;;;;;;18.25;15.50;;;;;;;;5100813;28;13954;-76
2021/12/25 18:28:21;;;;;;;;;18.75;17.25;;;;;;;;5100486;28;11609;-76
2021/12/25 18:30:47;;;;;;;;;20.50;18.50;;;;;;;;5100854;28;10903;-76
2021/12/25 18:33:12;;;;;;;;;19.75;17.75;;;;;;;;5100225;28;13812;-77
2021/12/25 18:35:37;;;;;;;;;19.75;19.00;;;;;;;;5099726;28;13640;-77
2021/12/25 18:38:04;;;;;;;;;15.25;13.25;;;;;;;;5100563;28;8868;-77
2021/12/25 18:40:29;;;;;;;;;18.00;16.25;;;;;;;;5099672;28;11474;-76
2021/12/25 18:42:54;;;;;;;;;16.00;14.50;;;;;;;;5099602;28;11526;-77
2021/12/25 18:45:20;;;;;;;;;18.25;14.75;;;;;;;;5099912;28;11551;-76
2021/12/25 18:47:46;;;;;;;;;16.50;16.50;;;;;;;;5099558;28;11541;-76
2021/12/25 18:50:12;;;;;;;;;17.50;17.25;;;;;;;;5098945;28;11375;-77
2021/12/25 18:52:38;;;;;;;;;15.50;15.25;;;;;;;;5084896;28;11617;-76
2021/12/25 18:55:05;;;;;;;;;18.50;16.50;;;;;;;;5079586;28;11623;-77
2021/12/25 18:57:30;;;;;;;;;15.75;15.75;;;;;;;;5093324;28;11692;-75
2021/12/25 18:59:56;;;;;;;;;19.25;15.50;;;;;;;;5078290;28;11640;-76
2021/12/25 19:02:21;;;;;;;;;18.50;16.00;;;;;;;;5083445;28;11361;-76
2021/12/25 19:04:46;;;;;;;;;13.00;13.00;;;;;;;;5088629;28;11886;-75
2021/12/25 19:07:12;;;;;;;;;15.25;14.00;;;;;;;;5088003;28;10317;-76
2021/12/25 19:09:37;;;;;;;;;11.50;11.50;;;;;;;;5087198;28;11082;-76
2021/12/25 19:12:02;;;;;;;;;19.75;15.25;;;;;;;;5084843;28;11399;-77
2021/12/25 19:14:28;;;;;;;;;18.00;14.50;;;;;;;;5079219;28;11521;-78
2021/12/25 19:16:53;;;;;;;;;12.75;12.75;;;;;;;;5080333;28;11366;-77
2021/12/25 19:19:19;;;;;;;;;13.75;13.00;;;;;;;;5082457;28;11428;-76
2021/12/25 19:21:44;;;;;;;;;17.00;16.00;;;;;;;;5082206;28;11376;-76
2021/12/25 19:24:19;;;;;;;;;15.00;13.00;;;;;;;;5081866;28;10522;-77
2021/12/25 19:26:44;;;;;;;;;19.00;18.75;;;;;;;;5082961;28;9121;-77